createdAt,value
2024-05-09T00:00:48.028Z,13.375
2024-05-09T00:02:47.611Z,13.313
2024-05-09T00:04:48.201Z,13.313
2024-05-09T00:06:47.846Z,13.25
2024-05-09T00:08:47.698Z,13.25
2024-05-09T00:10:47.896Z,13.187
2024-05-09T00:12:48.000Z,13.25
2024-05-09T00:14:47.927Z,13.25
2024-05-09T00:16:47.810Z,13.187
2024-05-09T00:18:47.736Z,13.125
2024-05-09T00:20:47.837Z,13.125
2024-05-09T00:22:47.733Z,13.063
2024-05-09T00:24:47.711Z,13.063
2024-05-09T00:26:47.657Z,13.063
2024-05-09T00:28:47.897Z,13.125
2024-05-09T00:30:47.681Z,13.125
2024-05-09T00:32:48.187Z,13.125
2024-05-09T00:34:47.808Z,13.125
2024-05-09T00:36:47.749Z,13.125
2024-05-09T00:38:47.676Z,13.063
2024-05-09T00:40:47.963Z,13
2024-05-09T00:42:47.506Z,13
2024-05-09T00:44:47.670Z,12.875
2024-05-09T00:46:48.213Z,12.875
2024-05-09T00:48:47.893Z,12.875
2024-05-09T00:50:48.986Z,12.938
2024-05-09T00:52:47.827Z,12.813
2024-05-09T00:54:47.595Z,12.813
2024-05-09T00:56:47.736Z,12.813
2024-05-09T00:58:47.711Z,12.875
2024-05-09T01:00:48.038Z,12.813
2024-05-09T01:02:47.857Z,12.813
2024-05-09T01:04:48.181Z,12.813
2024-05-09T01:06:47.812Z,12.813
2024-05-09T01:08:47.738Z,12.875
2024-05-09T01:10:49.258Z,12.875
2024-05-09T01:12:47.644Z,12.813
2024-05-09T01:14:47.739Z,12.688
2024-05-09T01:16:47.891Z,12.688
2024-05-09T01:18:48.247Z,12.688
2024-05-09T01:20:47.978Z,12.688
2024-05-09T01:22:47.832Z,12.625
2024-05-09T01:24:47.929Z,12.625
2024-05-09T01:26:47.778Z,12.562
2024-05-09T01:28:47.800Z,12.562
2024-05-09T01:30:47.562Z,12.5
2024-05-09T01:32:48.185Z,12.5
2024-05-09T01:34:47.877Z,12.5
2024-05-09T01:36:47.769Z,12.438
2024-05-09T01:38:47.705Z,12.5
2024-05-09T01:40:47.896Z,12.562
2024-05-09T01:42:47.768Z,12.5
2024-05-09T01:44:47.715Z,12.625
2024-05-09T01:46:47.785Z,12.5
2024-05-09T01:48:47.952Z,12.438
2024-05-09T01:50:47.964Z,12.438
2024-05-09T01:52:47.882Z,12.438
2024-05-09T01:54:47.857Z,12.375
2024-05-09T01:56:47.719Z,12.375
2024-05-09T01:58:47.920Z,12.313
2024-05-09T02:00:47.968Z,12.25
2024-05-09T02:02:48.137Z,12.313
2024-05-09T02:04:48.116Z,12.313
2024-05-09T02:06:47.772Z,12.188
2024-05-09T02:08:47.845Z,12.188
2024-05-09T02:10:48.631Z,12.188
2024-05-09T02:12:47.751Z,12.188
2024-05-09T02:14:47.992Z,12.125
2024-05-09T02:16:47.910Z,12.188
2024-05-09T02:18:48.026Z,12.125
2024-05-09T02:20:47.888Z,12.125
2024-05-09T02:22:47.921Z,12.063
2024-05-09T02:24:48.160Z,12.063
2024-05-09T02:26:47.825Z,12.125
2024-05-09T02:28:48.638Z,12.063
2024-05-09T02:30:47.761Z,11.937
2024-05-09T02:32:48.346Z,12
2024-05-09T02:34:47.703Z,12
2024-05-09T02:36:47.810Z,12
2024-05-09T02:38:49.075Z,12.063
2024-05-09T02:40:47.929Z,12
2024-05-09T02:42:47.826Z,11.937
2024-05-09T02:44:47.729Z,11.937
2024-05-09T02:46:47.908Z,11.937
2024-05-09T02:48:48.446Z,11.937
2024-05-09T02:50:47.894Z,11.813
2024-05-09T02:52:47.776Z,11.875
2024-05-09T02:54:47.916Z,11.937
2024-05-09T02:56:47.962Z,11.937
2024-05-09T02:58:47.739Z,11.875
2024-05-09T03:00:47.933Z,11.875
2024-05-09T03:02:47.990Z,11.75
2024-05-09T03:04:48.052Z,11.75
2024-05-09T03:06:47.868Z,11.688
2024-05-09T03:08:48.021Z,11.75
2024-05-09T03:10:48.141Z,11.688
2024-05-09T03:12:47.800Z,11.75
2024-05-09T03:14:47.725Z,11.75
2024-05-09T03:16:48.087Z,11.688
2024-05-09T03:18:47.918Z,11.688
2024-05-09T03:20:47.910Z,11.625
2024-05-09T03:22:47.783Z,11.688
2024-05-09T03:24:47.696Z,11.625
2024-05-09T03:26:47.693Z,11.688
2024-05-09T03:28:47.691Z,11.625
2024-05-09T03:30:47.675Z,11.625
2024-05-09T03:32:48.239Z,11.625
2024-05-09T03:34:47.745Z,11.563
2024-05-09T03:36:47.675Z,11.563
2024-05-09T03:38:47.673Z,11.625
2024-05-09T03:40:48.971Z,11.625
2024-05-09T03:42:47.838Z,11.5
2024-05-09T03:44:47.723Z,11.563
2024-05-09T03:46:47.960Z,11.5
2024-05-09T03:48:48.055Z,11.5
2024-05-09T03:50:48.170Z,11.5
2024-05-09T03:52:47.827Z,11.5
2024-05-09T03:54:47.673Z,11.563
2024-05-09T03:56:47.756Z,11.5
2024-05-09T03:58:47.789Z,11.438
2024-05-09T04:00:48.088Z,11.438
2024-05-09T04:02:48.242Z,11.5
2024-05-09T04:04:48.164Z,11.5
2024-05-09T04:06:47.885Z,11.438
2024-05-09T04:08:48.029Z,11.438
2024-05-09T04:10:48.010Z,11.438
2024-05-09T04:12:47.887Z,11.438
2024-05-09T04:14:48.022Z,11.438
2024-05-09T04:16:48.024Z,11.375
2024-05-09T04:18:48.260Z,11.438
2024-05-09T04:20:48.004Z,11.375
2024-05-09T04:22:48.150Z,11.438
2024-05-09T04:24:47.919Z,11.375
2024-05-09T04:26:47.860Z,11.5
2024-05-09T04:28:47.976Z,11.438
2024-05-09T04:30:48.147Z,11.438
2024-05-09T04:32:47.999Z,11.438
2024-05-09T04:34:48.034Z,11.438
2024-05-09T04:36:47.922Z,11.375
2024-05-09T04:38:47.875Z,11.438
2024-05-09T04:40:47.891Z,11.438
2024-05-09T04:42:47.725Z,11.375
2024-05-09T04:44:47.719Z,11.438
2024-05-09T04:46:48.010Z,11.438
2024-05-09T04:48:47.961Z,11.438
2024-05-09T04:50:47.955Z,11.438
2024-05-09T04:52:47.976Z,11.375
2024-05-09T04:54:47.721Z,11.375
2024-05-09T04:56:47.979Z,11.438
2024-05-09T04:58:48.047Z,11.375
2024-05-09T05:00:48.192Z,11.438
2024-05-09T05:02:48.252Z,11.438
2024-05-09T05:04:48.098Z,11.438
2024-05-09T05:06:47.907Z,11.375
2024-05-09T05:08:47.732Z,11.438
2024-05-09T05:10:49.694Z,11.375
2024-05-09T05:12:47.952Z,11.438
2024-05-09T05:14:47.892Z,11.438
2024-05-09T05:16:48.087Z,11.438
2024-05-09T05:18:48.138Z,11.438
2024-05-09T05:20:48.175Z,11.438
2024-05-09T05:22:47.907Z,11.375
2024-05-09T05:24:47.962Z,11.438
2024-05-09T05:26:48.049Z,11.438
2024-05-09T05:28:47.915Z,11.438
2024-05-09T05:30:48.141Z,11.375
2024-05-09T05:32:48.363Z,11.438
2024-05-09T05:34:48.178Z,11.5
2024-05-09T05:36:47.836Z,11.312
2024-05-09T05:38:48.175Z,11.438
2024-05-09T05:40:48.118Z,11.438
2024-05-09T05:42:47.865Z,11.438
2024-05-09T05:44:47.895Z,11.438
2024-05-09T05:46:48.005Z,11.5
2024-05-09T05:48:48.384Z,11.438
2024-05-09T05:50:48.163Z,11.438
2024-05-09T05:52:47.919Z,11.563
2024-05-09T05:54:47.956Z,11.563
2024-05-09T05:56:48.061Z,11.563
2024-05-09T05:58:48.071Z,11.5
2024-05-09T06:00:48.584Z,11.563
2024-05-09T06:02:48.233Z,11.625
2024-05-09T06:04:48.226Z,11.563
2024-05-09T06:06:48.088Z,11.625
2024-05-09T06:08:48.300Z,11.625
2024-05-09T06:10:48.226Z,11.625
2024-05-09T06:12:48.012Z,11.625
2024-05-09T06:14:47.925Z,11.563
2024-05-09T06:16:48.117Z,11.625
2024-05-09T06:18:48.380Z,11.625
2024-05-09T06:20:48.097Z,11.688
2024-05-09T06:22:47.936Z,11.688
2024-05-09T06:24:48.115Z,11.688
2024-05-09T06:26:48.057Z,11.688
2024-05-09T06:28:48.193Z,11.688
2024-05-09T06:30:48.016Z,11.688
2024-05-09T06:32:48.299Z,11.688
2024-05-09T06:34:48.459Z,11.688
2024-05-09T06:36:48.230Z,11.688
2024-05-09T06:38:48.062Z,11.688
2024-05-09T06:40:48.071Z,11.75
2024-05-09T06:42:47.962Z,11.75
2024-05-09T06:44:48.028Z,11.813
2024-05-09T06:46:48.322Z,11.75
2024-05-09T06:48:49.023Z,11.75
2024-05-09T06:50:48.623Z,11.75
2024-05-09T06:52:48.086Z,11.813
2024-05-09T06:54:47.929Z,11.813
2024-05-09T06:58:48.082Z,11.813
2024-05-09T07:00:48.158Z,11.875
2024-05-09T07:02:48.274Z,11.875
2024-05-09T07:04:48.076Z,11.875
2024-05-09T07:06:48.030Z,11.875
2024-05-09T07:08:52.337Z,11.937
2024-05-09T07:10:48.534Z,11.937
2024-05-09T07:12:47.925Z,11.937
2024-05-09T07:14:48.519Z,11.937
2024-05-09T07:16:48.245Z,11.937
2024-05-09T07:18:48.519Z,12
2024-05-09T07:20:49.661Z,12
2024-05-09T07:22:48.446Z,12.063
2024-05-09T07:24:47.997Z,12.063
2024-05-09T07:26:48.406Z,12.063
2024-05-09T07:28:48.084Z,12.063
2024-05-09T07:30:48.346Z,12.063
2024-05-09T07:32:49.065Z,12.125
2024-05-09T07:34:48.056Z,12.125
2024-05-09T07:36:47.967Z,12.125
2024-05-09T07:38:48.145Z,12.125
2024-05-09T07:40:48.287Z,12.125
2024-05-09T07:42:48.053Z,12.25
2024-05-09T07:44:47.928Z,12.188
2024-05-09T07:49:13.517Z,12.25
2024-05-09T07:54:43.381Z,12.375
2024-05-09T07:56:43.601Z,12.313
2024-05-09T07:58:43.351Z,12.313
2024-05-09T08:00:43.207Z,12.375
2024-05-09T08:02:43.168Z,19.062
2024-05-09T08:04:43.491Z,19.187
2024-05-09T08:06:43.221Z,19.125
2024-05-09T08:08:43.166Z,19
2024-05-09T08:10:43.307Z,19
2024-05-09T08:14:43.293Z,19
2024-05-09T08:16:43.346Z,19.062
2024-05-09T08:18:43.325Z,19.062
2024-05-09T08:20:43.323Z,19
2024-05-09T08:24:43.474Z,19.125
2024-05-09T08:26:43.350Z,19.125
2024-05-09T08:30:43.754Z,19.125
2024-05-09T08:32:43.308Z,19.187
2024-05-09T08:34:43.272Z,19.187
2024-05-09T08:36:43.270Z,19.125
2024-05-09T08:40:43.831Z,19.25
2024-05-09T08:42:43.327Z,19.187
2024-05-09T08:44:43.264Z,19.25
2024-05-09T08:48:43.356Z,19.25
2024-05-09T08:50:43.726Z,19.25
2024-05-09T08:52:43.335Z,19.312
2024-05-09T08:54:43.708Z,19.312
2024-05-09T08:56:43.300Z,19.25
2024-05-09T08:58:43.383Z,19.312
2024-05-09T09:02:43.840Z,19.375
2024-05-09T09:06:43.623Z,19.437
2024-05-09T09:08:43.362Z,19.437
2024-05-09T09:10:43.564Z,19.437
2024-05-09T09:12:43.490Z,19.437
2024-05-09T09:14:43.454Z,19.5
2024-05-09T09:18:43.836Z,19.437
2024-05-09T09:20:43.350Z,19.5
2024-05-09T09:22:43.509Z,19.437
2024-05-09T09:24:43.489Z,19.5
2024-05-09T09:30:43.756Z,19.625
2024-05-09T09:32:43.695Z,19.5
2024-05-09T09:36:43.504Z,19.437
2024-05-09T09:38:43.408Z,19.5
2024-05-09T09:40:49.652Z,19.562
2024-05-09T09:42:43.482Z,19.625
2024-05-09T09:44:54.564Z,19.562
2024-05-09T09:46:43.634Z,19.625
2024-05-09T09:54:43.436Z,19.625
2024-05-09T09:56:43.598Z,19.687
2024-05-09T09:58:43.621Z,19.687
2024-05-09T10:00:44.276Z,19.625
2024-05-09T10:02:43.450Z,19.625
2024-05-09T10:04:43.854Z,19.625
2024-05-09T10:08:43.426Z,19.625
2024-05-09T10:10:43.543Z,19.687
2024-05-09T10:12:43.397Z,19.687
2024-05-09T10:14:43.508Z,19.687
2024-05-09T10:18:43.541Z,19.75
2024-05-09T10:20:43.470Z,19.687
2024-05-09T10:22:43.335Z,19.812
2024-05-09T10:24:43.520Z,19.75
2024-05-09T10:26:43.429Z,19.75
2024-05-09T10:28:43.475Z,19.812
2024-05-09T10:30:43.869Z,19.875
2024-05-09T10:32:43.878Z,19.875
2024-05-09T10:36:43.465Z,19.937
2024-05-09T10:38:43.496Z,19.875
2024-05-09T10:40:43.526Z,19.875
2024-05-09T10:42:44.332Z,20
2024-05-09T10:46:43.804Z,19.812
2024-05-09T10:48:43.830Z,19.812
2024-05-09T10:52:43.336Z,19.937
2024-05-09T10:54:43.869Z,19.875
2024-05-09T10:56:43.658Z,19.937
2024-05-09T10:58:43.472Z,19.875
2024-05-09T11:00:43.789Z,19.937
2024-05-09T11:02:44.245Z,19.937
2024-05-09T11:04:43.640Z,19.937
2024-05-09T11:06:44.409Z,20
2024-05-09T11:10:43.779Z,19.937
2024-05-09T11:14:43.571Z,19.937
2024-05-09T11:16:43.494Z,20
2024-05-09T11:18:44.364Z,20.062
2024-05-09T11:20:43.629Z,20
2024-05-09T11:24:43.865Z,20
2024-05-09T11:26:43.668Z,20.062
2024-05-09T11:30:43.744Z,20.062
2024-05-09T11:32:43.736Z,20.062
2024-05-09T11:34:43.686Z,20.125
2024-05-09T11:36:43.694Z,20.125
2024-05-09T11:38:43.783Z,20.125
2024-05-09T11:40:43.895Z,20.125
2024-05-09T11:42:43.872Z,20.125
2024-05-09T11:44:43.544Z,20.062
2024-05-09T11:46:43.886Z,20.125
2024-05-09T11:48:43.749Z,20.125
2024-05-09T11:50:43.699Z,20.187
2024-05-09T11:52:43.501Z,20.187
2024-05-09T11:54:43.540Z,20.187
2024-05-09T11:56:44.009Z,20.187
2024-05-09T11:58:43.687Z,20.25
2024-05-09T12:00:43.715Z,20.25
2024-05-09T12:04:44.068Z,20.25
2024-05-09T12:06:43.518Z,20.25
2024-05-09T12:08:43.683Z,20.312
2024-05-09T12:10:44.087Z,20.312
2024-05-09T12:14:43.857Z,20.312
2024-05-09T12:16:43.962Z,20.312
2024-05-09T12:24:44.497Z,20.375
2024-05-09T12:26:43.442Z,20.375
2024-05-09T12:28:43.732Z,20.438
2024-05-09T12:32:43.694Z,20.438
2024-05-09T12:34:45.153Z,20.5
2024-05-09T12:38:43.647Z,20.438
2024-05-09T12:40:43.930Z,20.5
2024-05-09T12:42:43.862Z,20.5
2024-05-09T12:44:43.516Z,20.5
2024-05-09T12:46:43.974Z,20.562
2024-05-09T12:48:44.383Z,20.562
2024-05-09T12:52:43.479Z,20.625
2024-05-09T12:54:43.495Z,20.562
2024-05-09T12:58:43.479Z,20.625
2024-05-09T13:00:43.870Z,20.687
2024-05-09T13:02:43.822Z,20.625
2024-05-09T13:04:43.635Z,20.625
2024-05-09T13:08:43.753Z,20.687
2024-05-09T13:10:43.709Z,20.75
2024-05-09T13:16:43.706Z,20.812
2024-05-09T13:18:44.276Z,20.75
2024-05-09T13:22:43.656Z,20.812
2024-05-09T13:24:43.604Z,20.812
2024-05-09T13:26:43.661Z,20.812
2024-05-09T13:28:43.695Z,20.875
2024-05-09T13:30:43.998Z,20.875
2024-05-09T13:32:43.650Z,20.875
2024-05-09T13:34:44.032Z,20.812
2024-05-09T13:36:43.739Z,20.812
2024-05-09T13:38:43.609Z,20.875
2024-05-09T13:40:43.638Z,20.875
2024-05-09T13:42:45.130Z,20.875
2024-05-09T13:44:43.744Z,20.937
2024-05-09T13:46:44.521Z,20.937
2024-05-09T13:52:43.580Z,21
2024-05-09T13:54:43.558Z,21
2024-05-09T13:56:43.588Z,21
2024-05-09T13:58:43.563Z,21.063
2024-05-09T14:00:49.257Z,21
2024-05-09T14:02:44.050Z,21
2024-05-09T14:08:43.741Z,21.063
2024-05-09T14:10:45.267Z,21.125
2024-05-09T14:12:43.913Z,21.125
2024-05-09T14:14:43.740Z,21.125
2024-05-09T14:16:44.415Z,21.125
2024-05-09T14:18:43.818Z,21.125
2024-05-09T14:20:43.944Z,21.125
2024-05-09T14:24:43.662Z,21.187
2024-05-09T14:26:43.824Z,21.187
2024-05-09T14:28:43.786Z,21.187
2024-05-09T14:30:43.835Z,21.187
2024-05-09T14:32:44.254Z,21.187
2024-05-09T14:34:43.859Z,21.187
2024-05-09T14:36:44.096Z,21.187
2024-05-09T14:38:44.064Z,21.187
2024-05-09T14:40:44.184Z,21.25
2024-05-09T14:44:43.685Z,21.25
2024-05-09T14:52:43.795Z,21.312
2024-05-09T14:54:44.435Z,21.312
2024-05-09T14:58:44.454Z,21.312
2024-05-09T15:00:45.582Z,21.312
2024-05-09T15:02:43.831Z,21.375
2024-05-09T15:06:43.926Z,21.375
2024-05-09T15:10:43.978Z,21.375
2024-05-09T15:12:43.812Z,21.375
2024-05-09T15:14:43.742Z,21.375
2024-05-09T15:16:43.797Z,21.375
2024-05-09T15:18:44.689Z,21.375
2024-05-09T15:20:44.996Z,21.437
2024-05-09T15:22:43.889Z,21.375
2024-05-09T15:26:43.857Z,21.437
2024-05-09T15:30:45.406Z,21.437
2024-05-09T15:32:44.145Z,21.437
2024-05-09T15:36:43.831Z,21.5
2024-05-09T15:40:44.005Z,21.437
2024-05-09T15:42:43.931Z,21.437
2024-05-09T15:44:44.490Z,21.5
2024-05-09T15:46:43.813Z,21.437
2024-05-09T15:48:45.370Z,21.562
2024-05-09T15:50:44.836Z,21.437
2024-05-09T15:52:43.716Z,21.5
2024-05-09T15:54:44.041Z,21.5
2024-05-09T16:00:44.950Z,21.562
2024-05-09T16:02:44.296Z,21.5
2024-05-09T16:04:43.813Z,21.5
2024-05-09T16:06:43.813Z,21.562
2024-05-09T16:08:43.847Z,21.5
2024-05-09T16:10:46.083Z,21.5
2024-05-09T16:12:44.116Z,21.5
2024-05-09T16:16:43.818Z,21.5
2024-05-09T16:18:44.046Z,21.437
2024-05-09T16:20:48.364Z,21.5
2024-05-09T16:22:44.032Z,21.5
2024-05-09T16:24:43.818Z,21.5
2024-05-09T16:26:44.189Z,21.562
2024-05-09T16:30:43.997Z,21.5
2024-05-09T16:32:43.845Z,21.5
2024-05-09T16:34:43.936Z,21.437
2024-05-09T16:38:43.952Z,21.437
2024-05-09T16:40:44.071Z,21.437
2024-05-09T16:42:43.865Z,21.5
2024-05-09T16:44:43.818Z,21.5
2024-05-09T16:46:43.886Z,21.5
2024-05-09T16:52:43.993Z,21.5
2024-05-09T16:54:44.324Z,21.437
2024-05-09T16:56:44.645Z,21.5
2024-05-09T16:58:43.834Z,21.5
2024-05-09T17:00:44.895Z,21.437
2024-05-09T17:04:44.483Z,21.5
2024-05-09T17:06:45.021Z,21.437
2024-05-09T17:08:43.804Z,21.5
2024-05-09T17:10:43.852Z,21.5
2024-05-09T17:12:44.102Z,21.437
2024-05-09T17:14:43.884Z,21.437
2024-05-09T17:16:44.317Z,21.375
2024-05-09T17:20:43.906Z,21.437
2024-05-09T17:22:43.890Z,21.5
2024-05-09T17:26:43.918Z,21.437
2024-05-09T17:28:44.227Z,21.437
2024-05-09T17:30:44.002Z,21.437
2024-05-09T17:32:43.912Z,21.437
2024-05-09T17:34:44.007Z,21.437
2024-05-09T17:36:44.353Z,21.375
2024-05-09T17:38:43.874Z,21.437
2024-05-09T17:40:44.108Z,21.437
2024-05-09T17:42:44.283Z,21.437
2024-05-09T17:44:44.209Z,21.437
2024-05-09T17:50:44.102Z,21.437
2024-05-09T17:52:43.921Z,21.437
2024-05-09T18:00:44.188Z,21.375
2024-05-09T18:02:44.378Z,21.312
2024-05-09T18:04:44.118Z,21.187
2024-05-09T18:08:44.014Z,20.937
2024-05-09T18:10:44.484Z,20.812
2024-05-09T18:12:43.878Z,20.687
2024-05-09T18:14:44.010Z,20.625
2024-05-09T18:18:44.586Z,20.375
2024-05-09T18:20:45.295Z,20.312
2024-05-09T18:22:44.016Z,20.187
2024-05-09T18:24:44.048Z,20.125
2024-05-09T18:26:44.133Z,20
2024-05-09T18:28:44.079Z,19.812
2024-05-09T18:30:43.968Z,19.75
2024-05-09T18:32:44.326Z,19.687
2024-05-09T18:36:44.300Z,19.437
2024-05-09T18:38:44.060Z,19.312
2024-05-09T18:40:45.978Z,19.187
2024-05-09T18:42:44.164Z,19.062
2024-05-09T18:48:44.230Z,18.75
2024-05-09T18:50:44.172Z,18.687
2024-05-09T18:56:43.926Z,18.5
2024-05-09T18:58:44.175Z,18.375
2024-05-09T19:00:50.293Z,18.25
2024-05-09T19:02:44.690Z,18.187
2024-05-09T19:04:44.131Z,18.125
2024-05-09T19:12:44.207Z,17.875
2024-05-09T19:14:44.183Z,17.812
2024-05-09T19:18:44.227Z,17.687
2024-05-09T19:24:44.033Z,17.5
2024-05-09T19:26:44.073Z,17.5
2024-05-09T19:28:44.114Z,17.437
2024-05-09T19:30:44.137Z,17.375
2024-05-09T19:32:44.007Z,17.312
2024-05-09T19:38:44.238Z,17.125
2024-05-09T19:42:44.201Z,17.062
2024-05-09T19:44:44.107Z,17
2024-05-09T19:50:46.311Z,16.937
2024-05-09T19:52:44.121Z,16.812
2024-05-09T19:54:44.293Z,16.812
2024-05-09T19:56:44.368Z,16.75
2024-05-09T19:58:44.230Z,16.687
2024-05-09T20:00:44.786Z,16.687
2024-05-09T20:02:44.431Z,16.687
2024-05-09T20:04:44.432Z,16.562
2024-05-09T20:06:44.229Z,16.562
2024-05-09T20:08:44.109Z,16.562
2024-05-09T20:10:44.241Z,16.5
2024-05-09T20:12:44.109Z,16.437
2024-05-09T20:14:44.212Z,16.375
2024-05-09T20:16:43.982Z,16.312
2024-05-09T20:18:44.401Z,16.25
2024-05-09T20:20:45.105Z,16.25
2024-05-09T20:22:44.014Z,16.25
2024-05-09T20:24:44.064Z,16.187
2024-05-09T20:28:44.167Z,16.062
2024-05-09T20:30:44.242Z,16.062
2024-05-09T20:32:44.736Z,16.062
2024-05-09T20:34:44.067Z,15.938
2024-05-09T20:36:44.354Z,15.938
2024-05-09T20:40:44.236Z,15.875
2024-05-09T20:42:44.193Z,15.813
2024-05-09T20:44:44.061Z,15.75
2024-05-09T20:46:44.195Z,15.687
2024-05-09T20:48:44.130Z,15.625
2024-05-09T20:52:44.084Z,15.5
2024-05-09T20:54:44.435Z,15.375
2024-05-09T20:56:44.167Z,15.375
2024-05-09T21:00:46.848Z,15.375
2024-05-09T21:02:44.166Z,15.5
2024-05-09T21:04:44.714Z,15.5
2024-05-09T21:06:44.628Z,15.563
2024-05-09T21:08:44.143Z,15.5
2024-05-09T21:10:44.273Z,15.5
2024-05-09T21:12:44.256Z,15.563
2024-05-09T21:14:44.173Z,15.5
2024-05-09T21:18:44.251Z,15.5
2024-05-09T21:20:44.347Z,15.438
2024-05-09T21:24:44.459Z,15.375
2024-05-09T21:28:44.171Z,15.438
2024-05-09T21:30:44.224Z,15.375
2024-05-09T21:32:44.216Z,15.313
2024-05-09T21:34:44.220Z,15.313
2024-05-09T21:38:44.131Z,15.25
2024-05-09T21:40:44.427Z,15.25
2024-05-09T21:42:44.262Z,15.188
2024-05-09T21:44:44.145Z,15.125
2024-05-09T21:46:44.481Z,15.062
2024-05-09T21:48:44.352Z,15
2024-05-09T21:52:44.273Z,15.188
2024-05-09T21:54:44.203Z,15.25
2024-05-09T22:00:44.324Z,15.25
2024-05-09T22:02:44.260Z,15.188
2024-05-09T22:04:44.887Z,15.188
2024-05-09T22:10:44.324Z,15.062
2024-05-09T22:12:44.233Z,15
2024-05-09T22:16:44.294Z,14.938
2024-05-09T22:18:44.274Z,14.938
2024-05-09T22:22:44.235Z,14.75
2024-05-09T22:24:44.351Z,14.75
2024-05-09T22:30:44.193Z,14.688
2024-05-09T22:32:44.335Z,14.688
2024-05-09T22:34:44.131Z,14.625
2024-05-09T22:36:44.139Z,14.563
2024-05-09T22:38:44.274Z,14.5
2024-05-09T22:40:47.141Z,14.563
2024-05-09T22:42:44.285Z,14.5
2024-05-09T22:44:44.111Z,14.437
2024-05-09T22:46:44.115Z,14.437
2024-05-09T22:48:44.249Z,14.437
2024-05-09T22:50:44.130Z,14.375
2024-05-09T22:52:44.129Z,14.313
2024-05-09T22:54:44.349Z,14.375
2024-05-09T22:56:44.288Z,14.313
2024-05-09T22:58:44.197Z,14.313
2024-05-09T23:00:44.490Z,14.25
2024-05-09T23:02:44.388Z,14.188
2024-05-09T23:04:44.505Z,14.188
2024-05-09T23:06:44.415Z,14.188
2024-05-09T23:14:44.315Z,14
2024-05-09T23:16:44.683Z,14
2024-05-09T23:18:44.701Z,14
2024-05-09T23:20:44.236Z,13.938
2024-05-09T23:26:44.652Z,14.125
2024-05-09T23:30:44.726Z,14.125
2024-05-09T23:32:44.543Z,14.125
2024-05-09T23:34:44.349Z,14.125
2024-05-09T23:38:44.306Z,14.063
2024-05-09T23:42:44.545Z,14.063
2024-05-09T23:46:44.610Z,14
2024-05-09T23:48:44.636Z,13.938
2024-05-09T23:50:44.331Z,13.875
2024-05-09T23:56:44.239Z,13.812
